createdAt,value
2023-06-19T00:01:40.397Z,25.33
2023-06-19T00:04:07.078Z,25.26
2023-06-19T00:06:33.803Z,25.21
2023-06-19T00:09:00.344Z,25.15
2023-06-19T00:11:26.897Z,25.11
2023-06-19T00:13:53.559Z,25.08
2023-06-19T00:16:20.339Z,25.07
2023-06-19T00:18:47.445Z,25.04
2023-06-19T00:21:13.977Z,25.00
2023-06-19T00:23:40.558Z,24.98
2023-06-19T00:26:07.850Z,24.98
2023-06-19T00:28:35.639Z,24.94
2023-06-19T00:31:02.302Z,24.95
2023-06-19T00:33:30.244Z,24.96
2023-06-19T00:35:56.893Z,24.97
2023-06-19T00:38:24.802Z,25.01
2023-06-19T00:40:51.347Z,25.04
2023-06-19T00:43:18.457Z,25.07
2023-06-19T00:45:45.057Z,25.10
2023-06-19T00:48:11.820Z,25.10
2023-06-19T00:50:38.490Z,25.11
2023-06-19T00:53:05.686Z,25.13
2023-06-19T00:55:33.424Z,25.13
2023-06-19T00:58:01.666Z,25.12
2023-06-19T01:00:28.270Z,25.13
2023-06-19T01:02:57.277Z,25.13
2023-06-19T01:05:23.958Z,25.13
2023-06-19T01:08:18.851Z,25.13
2023-06-19T01:10:48.775Z,25.13
2023-06-19T01:13:23.623Z,25.12
2023-06-19T01:15:50.763Z,25.13
2023-06-19T01:18:17.794Z,25.11
2023-06-19T01:20:44.889Z,25.08
2023-06-19T01:23:12.386Z,24.99
2023-06-19T01:25:40.368Z,24.79
2023-06-19T01:28:10.785Z,24.90
2023-06-19T01:30:42.300Z,24.95
2023-06-19T01:33:28.905Z,24.98
2023-06-19T01:35:55.584Z,24.97
2023-06-19T01:38:22.342Z,25.07
2023-06-19T01:40:53.779Z,25.13
2023-06-19T01:43:20.653Z,24.98
2023-06-19T01:45:47.272Z,24.82
2023-06-19T01:48:15.354Z,24.79
2023-06-19T01:50:49.297Z,24.74
2023-06-19T01:53:16.237Z,24.83
2023-06-19T01:55:42.957Z,24.85
2023-06-19T01:58:09.673Z,24.88
2023-06-19T02:00:36.390Z,24.86
2023-06-19T02:03:03.247Z,24.78
2023-06-19T02:05:30.799Z,24.66
2023-06-19T02:07:57.541Z,24.70
2023-06-19T02:10:24.359Z,24.70
2023-06-19T02:12:51.119Z,24.66
2023-06-19T02:15:17.802Z,24.66
2023-06-19T02:17:45.286Z,24.56
2023-06-19T02:20:12.412Z,24.77
2023-06-19T02:22:39.716Z,24.79
2023-06-19T02:25:07.200Z,24.74
2023-06-19T02:27:33.628Z,24.59
2023-06-19T02:30:00.234Z,24.60
2023-06-19T02:32:27.655Z,24.65
2023-06-19T02:34:55.614Z,24.66
2023-06-19T02:37:22.192Z,24.68
2023-06-19T02:39:48.815Z,24.65
2023-06-19T02:42:15.642Z,24.59
2023-06-19T02:44:46.759Z,24.57
2023-06-19T02:47:13.303Z,24.55
2023-06-19T02:49:39.883Z,24.51
2023-06-19T02:52:07.138Z,24.46
2023-06-19T02:54:33.799Z,24.45
2023-06-19T02:57:01.021Z,24.43
2023-06-19T02:59:27.655Z,24.41
2023-06-19T03:01:54.218Z,24.37
2023-06-19T03:04:20.770Z,24.37
2023-06-19T03:06:47.309Z,24.31
2023-06-19T03:09:13.904Z,24.34
2023-06-19T03:11:41.043Z,24.35
2023-06-19T03:14:08.613Z,24.38
2023-06-19T03:16:36.056Z,24.39
2023-06-19T03:19:03.612Z,24.42
2023-06-19T03:21:30.179Z,24.39
2023-06-19T03:23:56.814Z,24.30
2023-06-19T03:26:25.920Z,24.32
2023-06-19T03:28:52.912Z,24.25
2023-06-19T03:31:20.260Z,24.27
2023-06-19T03:33:46.981Z,24.26
2023-06-19T03:36:14.128Z,24.24
2023-06-19T03:38:51.222Z,24.18
2023-06-19T03:41:21.341Z,24.21
2023-06-19T03:43:48.130Z,24.17
2023-06-19T03:46:15.346Z,24.14
2023-06-19T03:48:41.978Z,24.17
2023-06-19T03:51:08.556Z,24.18
2023-06-19T03:53:35.141Z,24.13
2023-06-19T03:56:02.155Z,24.10
2023-06-19T03:58:28.733Z,24.10
2023-06-19T04:00:55.328Z,24.12
2023-06-19T04:03:22.026Z,24.17
2023-06-19T04:05:48.765Z,24.16
2023-06-19T04:08:15.437Z,24.14
2023-06-19T04:10:43.716Z,23.96
2023-06-19T04:13:10.411Z,23.99
2023-06-19T04:15:38.350Z,23.96
2023-06-19T04:18:05.265Z,24.01
2023-06-19T04:20:31.992Z,23.98
2023-06-19T04:22:58.570Z,24.06
2023-06-19T04:25:25.151Z,24.09
2023-06-19T04:27:52.281Z,24.07
2023-06-19T04:30:22.107Z,24.18
2023-06-19T04:32:49.044Z,24.06
2023-06-19T04:35:15.638Z,23.96
2023-06-19T04:37:42.173Z,23.92
2023-06-19T04:40:09.164Z,23.98
2023-06-19T04:42:35.728Z,24.03
2023-06-19T04:45:02.318Z,24.07
2023-06-19T04:47:36.717Z,23.96
2023-06-19T04:50:16.680Z,23.93
2023-06-19T04:52:43.430Z,24.01
2023-06-19T04:55:11.360Z,24.08
2023-06-19T04:57:38.561Z,24.24
2023-06-19T05:00:11.465Z,24.25
2023-06-19T05:02:38.264Z,24.20
2023-06-19T05:05:05.376Z,24.34
2023-06-19T05:07:32.402Z,24.30
2023-06-19T05:10:01.864Z,24.56
2023-06-19T05:12:28.387Z,24.64
2023-06-19T05:14:54.959Z,24.66
2023-06-19T05:17:21.948Z,24.82
2023-06-19T05:19:48.929Z,24.85
2023-06-19T05:22:15.595Z,24.99
2023-06-19T05:24:42.246Z,25.14
2023-06-19T05:27:08.820Z,25.21
2023-06-19T05:29:35.466Z,25.09
2023-06-19T05:32:02.015Z,25.18
2023-06-19T05:34:28.740Z,25.10
2023-06-19T05:36:55.349Z,25.28
2023-06-19T05:39:21.910Z,25.27
2023-06-19T05:41:48.668Z,25.15
2023-06-19T05:44:17.676Z,25.21
2023-06-19T05:46:44.350Z,25.30
2023-06-19T05:49:11.183Z,25.27
2023-06-19T05:51:37.902Z,25.24
2023-06-19T05:54:05.051Z,25.35
2023-06-19T05:56:33.994Z,25.39
2023-06-19T05:59:02.185Z,25.38
2023-06-19T06:01:29.088Z,25.42
2023-06-19T06:03:56.384Z,25.45
2023-06-19T06:06:26.770Z,25.34
2023-06-19T06:08:53.634Z,25.48
2023-06-19T06:11:20.380Z,25.41
2023-06-19T06:13:47.037Z,25.47
2023-06-19T06:16:15.209Z,25.51
2023-06-19T06:18:41.957Z,25.57
2023-06-19T06:21:09.277Z,25.64
2023-06-19T06:23:35.864Z,25.57
2023-06-19T06:26:03.771Z,25.68
2023-06-19T06:28:30.769Z,25.79
2023-06-19T06:30:57.394Z,25.93
2023-06-19T06:33:24.677Z,25.82
2023-06-19T06:35:52.567Z,25.87
2023-06-19T06:38:19.264Z,25.74
2023-06-19T06:40:45.868Z,25.87
2023-06-19T06:43:12.652Z,25.85
2023-06-19T06:45:39.425Z,25.75
2023-06-19T06:48:08.104Z,25.70
2023-06-19T06:50:34.876Z,25.87
2023-06-19T06:53:01.671Z,25.98
2023-06-19T06:55:28.280Z,26.12
2023-06-19T06:57:54.938Z,26.31
2023-06-19T07:00:21.791Z,26.13
2023-06-19T07:02:51.293Z,26.49
2023-06-19T07:05:18.153Z,26.53
2023-06-19T07:07:44.718Z,26.65
2023-06-19T07:10:11.404Z,26.69
2023-06-19T07:12:46.284Z,26.60
2023-06-19T07:15:12.999Z,26.77
2023-06-19T07:17:39.637Z,27.01
2023-06-19T07:20:07.451Z,27.25
2023-06-19T07:22:34.140Z,27.08
2023-06-19T07:25:00.729Z,26.90
2023-06-19T07:27:28.663Z,26.92
2023-06-19T07:29:55.317Z,26.96
2023-06-19T07:32:21.919Z,26.87
2023-06-19T07:34:48.765Z,26.74
2023-06-19T07:37:18.997Z,26.80
2023-06-19T07:39:50.696Z,26.81
2023-06-19T07:42:18.918Z,26.74
2023-06-19T07:44:45.969Z,26.88
2023-06-19T07:47:12.995Z,26.90
2023-06-19T07:49:39.561Z,26.72
2023-06-19T07:52:06.642Z,26.97
2023-06-19T07:54:35.248Z,27.00
2023-06-19T07:57:02.043Z,27.05
2023-06-19T07:59:28.701Z,27.21
2023-06-19T08:01:55.314Z,27.26
2023-06-19T08:04:21.859Z,27.33
2023-06-19T08:06:48.411Z,27.75
2023-06-19T08:09:15.061Z,27.53
2023-06-19T08:11:41.674Z,27.48
2023-06-19T08:14:08.458Z,27.39
2023-06-19T08:16:35.067Z,27.57
2023-06-19T08:19:01.608Z,27.55
2023-06-19T08:21:28.515Z,27.25
2023-06-19T08:23:55.144Z,27.31
2023-06-19T08:26:21.738Z,27.31
2023-06-19T08:28:48.862Z,27.28
2023-06-19T08:31:15.516Z,27.73
2023-06-19T08:33:42.051Z,27.64
2023-06-19T08:36:08.654Z,27.67
2023-06-19T08:38:35.259Z,27.87
2023-06-19T08:41:01.802Z,28.03
2023-06-19T08:43:28.506Z,27.89
2023-06-19T08:46:07.192Z,28.11
2023-06-19T08:48:36.351Z,28.22
2023-06-19T08:51:05.241Z,28.26
2023-06-19T08:53:46.258Z,28.16
2023-06-19T08:56:12.917Z,28.16
2023-06-19T08:58:39.516Z,27.93
2023-06-19T09:01:06.358Z,28.07
2023-06-19T09:03:33.056Z,27.94
2023-06-19T09:06:08.415Z,27.88
2023-06-19T09:08:35.544Z,28.15
2023-06-19T09:11:03.360Z,28.40
2023-06-19T09:13:30.706Z,28.71
2023-06-19T09:16:05.189Z,28.72
2023-06-19T09:18:33.144Z,28.26
2023-06-19T09:20:59.936Z,28.47
2023-06-19T09:23:26.553Z,28.90
2023-06-19T09:25:58.893Z,29.08
2023-06-19T09:28:27.572Z,29.18
2023-06-19T09:31:04.060Z,29.21
2023-06-19T09:33:32.629Z,29.36
2023-06-19T09:36:00.558Z,29.24
2023-06-19T09:38:28.955Z,29.52
2023-06-19T09:40:57.774Z,29.55
2023-06-19T09:43:26.774Z,29.83
2023-06-19T09:45:56.786Z,29.29
2023-06-19T09:48:29.829Z,29.46
2023-06-19T09:51:01.698Z,29.71
2023-06-19T09:53:28.682Z,29.66
2023-06-19T09:55:57.141Z,29.49
2023-06-19T09:58:23.927Z,29.85
2023-06-19T10:00:51.843Z,29.58
2023-06-19T10:03:18.588Z,29.81
2023-06-19T10:05:45.588Z,30.02
2023-06-19T10:08:12.142Z,29.78
2023-06-19T10:10:48.811Z,29.83
2023-06-19T10:13:18.972Z,29.64
2023-06-19T10:15:46.210Z,29.56
2023-06-19T10:18:19.234Z,29.59
2023-06-19T10:20:47.819Z,29.54
2023-06-19T10:23:24.886Z,29.70
2023-06-19T10:25:54.777Z,29.71
2023-06-19T10:28:26.452Z,29.74
2023-06-19T10:30:57.470Z,29.76
2023-06-19T10:33:25.490Z,29.63
2023-06-19T10:35:52.270Z,29.64
2023-06-19T10:38:18.948Z,29.75
2023-06-19T10:40:47.405Z,29.57
2023-06-19T10:43:20.647Z,29.78
2023-06-19T10:45:47.336Z,29.63
2023-06-19T10:48:19.767Z,29.74
2023-06-19T10:50:46.326Z,29.83
2023-06-19T10:53:12.839Z,29.84
2023-06-19T10:55:39.387Z,29.77
2023-06-19T10:58:05.932Z,29.63
2023-06-19T11:00:34.872Z,29.68
2023-06-19T11:03:01.487Z,29.67
2023-06-19T11:05:28.727Z,29.61
2023-06-19T11:07:59.697Z,29.68
2023-06-19T11:10:29.222Z,29.54
2023-06-19T11:12:57.552Z,29.63
2023-06-19T11:15:36.576Z,29.63
2023-06-19T11:18:04.060Z,29.58
2023-06-19T11:20:31.451Z,29.86
2023-06-19T11:23:02.206Z,29.70
2023-06-19T11:25:38.984Z,29.86
2023-06-19T11:28:06.575Z,29.84
2023-06-19T11:30:34.772Z,29.87
2023-06-19T11:33:02.902Z,29.76
2023-06-19T11:35:37.297Z,29.77
2023-06-19T11:38:05.217Z,29.63
2023-06-19T11:40:40.595Z,29.90
2023-06-19T11:43:07.433Z,29.87
2023-06-19T11:45:34.003Z,29.94
2023-06-19T11:48:00.568Z,30.03
2023-06-19T11:50:30.432Z,29.97
2023-06-19T11:53:01.083Z,29.96
2023-06-19T11:55:27.795Z,29.85
2023-06-19T11:57:54.392Z,29.82
2023-06-19T12:00:21.102Z,29.75
2023-06-19T12:02:48.920Z,29.71
2023-06-19T12:05:15.629Z,29.73
2023-06-19T12:07:42.249Z,29.66
2023-06-19T12:10:11.272Z,29.63
2023-06-19T12:12:38.936Z,29.80
2023-06-19T12:15:06.720Z,30.02
2023-06-19T12:17:34.149Z,29.97
2023-06-19T12:20:01.942Z,30.16
2023-06-19T12:22:29.247Z,30.07
2023-06-19T12:24:55.668Z,29.92
2023-06-19T12:27:22.108Z,30.16
2023-06-19T12:29:49.355Z,29.65
2023-06-19T12:32:15.907Z,30.03
2023-06-19T12:34:47.401Z,30.12
2023-06-19T12:37:20.287Z,30.01
2023-06-19T12:39:47.383Z,30.07
2023-06-19T12:42:14.275Z,30.21
2023-06-19T12:44:41.310Z,30.39
2023-06-19T12:47:09.149Z,30.45
2023-06-19T12:49:35.834Z,30.47
2023-06-19T12:52:02.395Z,30.76
2023-06-19T12:54:29.479Z,30.62
2023-06-19T12:56:56.186Z,30.80
2023-06-19T12:59:22.948Z,30.88
2023-06-19T13:01:49.687Z,31.02
2023-06-19T13:04:16.794Z,31.00
2023-06-19T13:06:43.518Z,31.29
2023-06-19T13:09:10.406Z,31.49
2023-06-19T13:11:37.074Z,31.38
2023-06-19T13:14:03.746Z,31.60
2023-06-19T13:19:07.596Z,31.11
2023-06-19T13:21:36.459Z,30.93
2023-06-19T13:24:03.052Z,30.69
2023-06-19T13:26:29.626Z,30.53
2023-06-19T13:28:59.812Z,30.62
2023-06-19T13:31:26.787Z,30.70
2023-06-19T13:33:53.658Z,30.69
2023-06-19T13:36:20.679Z,30.56
2023-06-19T13:38:47.894Z,30.67
2023-06-19T13:41:14.661Z,30.74
2023-06-19T13:43:41.330Z,30.76
2023-06-19T13:46:08.125Z,30.73
2023-06-19T13:48:34.638Z,30.90
2023-06-19T13:51:01.834Z,30.59
2023-06-19T13:53:30.772Z,30.83
2023-06-19T13:55:57.533Z,31.22
2023-06-19T13:58:25.746Z,30.89
2023-06-19T14:00:52.419Z,30.89
2023-06-19T14:03:19.323Z,30.92
2023-06-19T14:05:46.267Z,30.84
2023-06-19T14:08:12.878Z,30.94
2023-06-19T14:10:39.619Z,31.06
2023-06-19T14:13:06.242Z,31.05
2023-06-19T14:15:32.816Z,31.08
2023-06-19T14:17:59.418Z,31.21
2023-06-19T14:20:26.279Z,30.85
2023-06-19T14:22:53.017Z,31.04
2023-06-19T14:25:19.630Z,31.04
2023-06-19T14:27:46.171Z,31.17
2023-06-19T14:30:12.858Z,31.03
2023-06-19T14:32:39.492Z,31.01
2023-06-19T14:35:06.765Z,31.26
2023-06-19T14:37:33.449Z,31.09
2023-06-19T14:40:00.096Z,31.29
2023-06-19T14:42:26.920Z,31.50
2023-06-19T14:44:53.461Z,31.53
2023-06-19T14:47:20.039Z,31.67
2023-06-19T14:49:46.900Z,31.64
2023-06-19T14:52:17.037Z,31.58
2023-06-19T14:54:43.828Z,31.70
2023-06-19T14:57:11.180Z,31.95
2023-06-19T14:59:37.846Z,32.18
2023-06-19T15:02:04.973Z,32.28
2023-06-19T15:04:32.419Z,32.10
2023-06-19T15:06:59.076Z,32.06
2023-06-19T15:09:27.010Z,31.90
2023-06-19T15:11:53.604Z,31.91
2023-06-19T15:14:20.711Z,31.90
2023-06-19T15:16:47.241Z,31.99
2023-06-19T15:19:13.942Z,31.99
2023-06-19T15:21:42.220Z,31.78
2023-06-19T15:24:09.237Z,31.83
2023-06-19T15:26:38.372Z,32.00
2023-06-19T15:29:06.667Z,32.71
2023-06-19T15:31:33.247Z,32.89
2023-06-19T15:33:59.953Z,33.21
2023-06-19T15:36:26.862Z,33.39
2023-06-19T15:38:53.424Z,33.42
2023-06-19T15:41:19.931Z,32.81
2023-06-19T15:43:46.522Z,32.86
2023-06-19T15:46:15.312Z,32.39
2023-06-19T15:48:43.042Z,32.21
2023-06-19T15:51:09.598Z,31.93
2023-06-19T15:53:38.612Z,31.80
2023-06-19T15:56:05.264Z,31.60
2023-06-19T15:58:31.881Z,31.55
2023-06-19T16:00:59.250Z,31.28
2023-06-19T16:03:27.162Z,31.35
2023-06-19T16:08:26.212Z,31.36
2023-06-19T16:10:52.854Z,31.23
2023-06-19T16:13:19.748Z,31.41
2023-06-19T16:15:46.464Z,31.43
2023-06-19T16:18:13.022Z,31.33
2023-06-19T16:20:39.762Z,31.25
2023-06-19T16:23:06.562Z,31.08
2023-06-19T16:25:33.127Z,31.24
2023-06-19T16:28:02.268Z,31.00
2023-06-19T16:30:29.892Z,31.15
2023-06-19T16:32:56.740Z,31.13
2023-06-19T16:35:23.683Z,31.06
2023-06-19T16:37:54.470Z,30.63
2023-06-19T16:40:22.527Z,30.54
2023-06-19T16:42:49.771Z,30.44
2023-06-19T16:45:16.460Z,30.30
2023-06-19T16:47:43.037Z,30.14
2023-06-19T16:50:09.913Z,29.85
2023-06-19T16:52:36.546Z,29.93
2023-06-19T16:55:03.296Z,29.77
2023-06-19T16:57:30.979Z,30.01
2023-06-19T16:59:57.890Z,29.61
2023-06-19T17:02:24.574Z,29.44
2023-06-19T17:04:51.517Z,29.63
2023-06-19T17:07:18.382Z,29.43
2023-06-19T17:09:47.038Z,29.18
2023-06-19T17:12:14.502Z,29.11
2023-06-19T17:14:42.618Z,28.88
2023-06-19T17:17:09.338Z,28.67
2023-06-19T17:19:36.299Z,28.81
2023-06-19T17:22:02.846Z,28.82
2023-06-19T17:24:29.485Z,28.88
2023-06-19T17:26:58.360Z,28.94
2023-06-19T17:29:27.532Z,28.79
2023-06-19T17:31:55.208Z,28.80
2023-06-19T17:34:21.789Z,28.76
2023-06-19T17:36:48.427Z,28.73
2023-06-19T17:39:15.694Z,28.58
2023-06-19T17:41:42.914Z,28.61
2023-06-19T17:44:09.725Z,28.41
2023-06-19T17:46:39.440Z,28.46
2023-06-19T17:49:06.815Z,28.29
2023-06-19T17:51:34.043Z,28.24
2023-06-19T17:54:04.936Z,28.26
2023-06-19T17:56:32.168Z,28.19
2023-06-19T17:58:58.778Z,28.13
2023-06-19T18:01:25.785Z,28.00
2023-06-19T18:03:52.937Z,28.13
2023-06-19T18:06:19.626Z,28.12
2023-06-19T18:08:46.289Z,28.12
2023-06-19T18:11:12.845Z,28.11
2023-06-19T18:13:40.089Z,28.03
2023-06-19T18:16:12.482Z,28.23
2023-06-19T18:18:40.144Z,28.20
2023-06-19T18:21:06.931Z,28.24
2023-06-19T18:23:33.993Z,28.10
2023-06-19T18:26:00.680Z,27.96
2023-06-19T18:28:27.208Z,27.99
2023-06-19T18:30:54.021Z,27.91
2023-06-19T18:33:20.634Z,27.94
2023-06-19T18:35:47.283Z,27.88
2023-06-19T18:38:14.337Z,27.73
2023-06-19T18:40:42.360Z,27.81
2023-06-19T18:43:09.114Z,27.74
2023-06-19T18:45:35.854Z,27.61
2023-06-19T18:48:02.664Z,27.58
2023-06-19T18:50:29.722Z,27.60
2023-06-19T18:52:56.296Z,27.50
2023-06-19T18:55:23.128Z,27.52
2023-06-19T18:57:49.824Z,27.47
2023-06-19T19:00:17.536Z,27.50
2023-06-19T19:02:44.397Z,27.40
2023-06-19T19:05:11.279Z,27.40
2023-06-19T19:07:38.005Z,27.31
2023-06-19T19:10:04.982Z,27.31
2023-06-19T19:12:31.572Z,27.29
2023-06-19T19:14:58.113Z,27.26
2023-06-19T19:17:24.768Z,27.19
2023-06-19T19:19:51.657Z,27.15
2023-06-19T19:22:18.202Z,27.08
2023-06-19T19:24:44.834Z,26.93
2023-06-19T19:27:11.509Z,26.88
2023-06-19T19:29:38.052Z,26.81
2023-06-19T19:32:04.905Z,26.72
2023-06-19T19:34:31.434Z,26.74
2023-06-19T19:36:58.023Z,26.66
2023-06-19T19:39:24.573Z,26.59
2023-06-19T19:41:51.137Z,26.51
2023-06-19T19:44:17.743Z,26.48
2023-06-19T19:46:44.450Z,26.48
2023-06-19T19:49:11.031Z,26.43
2023-06-19T19:51:37.603Z,26.35
2023-06-19T19:54:04.312Z,26.28
2023-06-19T19:56:30.923Z,26.24
2023-06-19T19:58:58.102Z,26.21
2023-06-19T20:01:24.698Z,26.21
2023-06-19T20:03:51.511Z,26.14
2023-06-19T20:06:18.344Z,26.13
2023-06-19T20:08:44.956Z,26.12
2023-06-19T20:11:15.224Z,26.10
2023-06-19T20:13:41.875Z,26.14
2023-06-19T20:16:10.284Z,26.08
2023-06-19T20:18:37.290Z,26.07
2023-06-19T20:21:04.071Z,26.09
2023-06-19T20:23:30.770Z,26.08
2023-06-19T20:25:57.365Z,26.05
2023-06-19T20:28:24.441Z,26.06
2023-06-19T20:30:51.155Z,26.03
2023-06-19T20:33:17.737Z,25.99
2023-06-19T20:35:47.737Z,25.99
2023-06-19T20:38:14.468Z,25.94
2023-06-19T20:40:41.033Z,25.93
2023-06-19T20:43:08.757Z,25.95
2023-06-19T20:45:35.325Z,25.92
2023-06-19T20:48:03.617Z,25.90
2023-06-19T20:50:30.244Z,25.87
2023-06-19T20:52:57.475Z,25.80
2023-06-19T20:55:24.062Z,25.74
2023-06-19T20:57:50.674Z,25.69
2023-06-19T21:00:17.982Z,25.65
2023-06-19T21:02:45.069Z,25.52
2023-06-19T21:05:18.043Z,25.42
2023-06-19T21:07:45.806Z,25.38
2023-06-19T21:10:12.819Z,25.36
2023-06-19T21:12:39.331Z,25.24
2023-06-19T21:15:06.335Z,25.21
2023-06-19T21:17:32.941Z,25.16
2023-06-19T21:19:59.625Z,25.23
2023-06-19T21:22:26.160Z,25.27
2023-06-19T21:24:52.732Z,25.24
2023-06-19T21:27:19.265Z,25.20
2023-06-19T21:29:45.781Z,25.15
2023-06-19T21:32:12.712Z,25.17
2023-06-19T21:34:39.235Z,25.16
2023-06-19T21:37:06.114Z,25.13
2023-06-19T21:39:32.620Z,25.09
2023-06-19T21:41:59.200Z,25.07
2023-06-19T21:44:25.762Z,25.05
2023-06-19T21:46:52.361Z,25.05
2023-06-19T21:49:18.960Z,25.13
2023-06-19T21:51:45.497Z,25.12
2023-06-19T21:54:12.111Z,25.12
2023-06-19T21:56:38.896Z,25.11
2023-06-19T21:59:05.452Z,25.14
2023-06-19T22:01:32.018Z,25.12
2023-06-19T22:03:58.860Z,25.17
2023-06-19T22:06:25.456Z,25.12
2023-06-19T22:08:51.993Z,25.16
2023-06-19T22:11:18.582Z,25.09
2023-06-19T22:13:45.122Z,25.17
2023-06-19T22:16:11.779Z,25.16
2023-06-19T22:18:38.397Z,25.15
2023-06-19T22:21:05.085Z,25.13
2023-06-19T22:23:31.673Z,25.08
2023-06-19T22:25:58.251Z,24.95
2023-06-19T22:28:24.927Z,24.87
2023-06-19T22:30:51.461Z,24.76
2023-06-19T22:33:18.224Z,24.67
2023-06-19T22:35:44.766Z,24.65
2023-06-19T22:38:11.376Z,24.60
2023-06-19T22:40:38.221Z,24.52
2023-06-19T22:43:04.735Z,24.50
2023-06-19T22:45:31.298Z,24.46
2023-06-19T22:47:57.970Z,24.46
2023-06-19T22:50:26.605Z,24.44
2023-06-19T22:52:53.466Z,24.36
2023-06-19T22:55:21.389Z,24.30
2023-06-19T22:57:48.301Z,24.29
2023-06-19T23:00:15.325Z,24.22
2023-06-19T23:02:43.099Z,24.22
2023-06-19T23:05:11.002Z,24.26
2023-06-19T23:07:38.171Z,24.31
2023-06-19T23:10:05.283Z,24.31
2023-06-19T23:12:31.952Z,24.29
2023-06-19T23:14:58.528Z,24.26
2023-06-19T23:17:25.104Z,24.20
2023-06-19T23:19:52.129Z,24.14
2023-06-19T23:22:18.760Z,24.08
2023-06-19T23:24:45.369Z,24.10
2023-06-19T23:27:11.904Z,24.12
2023-06-19T23:29:38.496Z,24.12
2023-06-19T23:32:05.833Z,24.12
2023-06-19T23:34:35.436Z,24.08
2023-06-19T23:37:02.535Z,24.10
2023-06-19T23:39:29.207Z,24.06
2023-06-19T23:41:55.779Z,24.10
2023-06-19T23:44:22.307Z,24.04
2023-06-19T23:46:48.933Z,24.12
2023-06-19T23:49:15.695Z,24.05
2023-06-19T23:51:42.416Z,24.08
2023-06-19T23:54:08.966Z,23.94
2023-06-19T23:56:35.510Z,23.99
2023-06-19T23:59:02.064Z,23.84
